createdAt,value
2019-02-17T05:00:40.113Z,95.97
2019-02-17T05:01:36.464Z,95.97
2019-02-17T05:03:09.237Z,96.39
2019-02-17T05:04:09.442Z,96.24
2019-02-17T05:05:43.241Z,95.92
2019-02-17T05:06:43.514Z,95.92
2019-02-17T05:08:17.345Z,95.29
2019-02-17T05:09:17.582Z,94.55
2019-02-17T05:10:51.386Z,95.18
2019-02-17T05:11:51.636Z,95.39
2019-02-17T05:13:26.397Z,95.18
2019-02-17T05:14:26.591Z,94.45
2019-02-17T05:16:00.349Z,93.96
2019-02-17T05:17:00.548Z,93.85
2019-02-17T05:18:34.351Z,94.06
2019-02-17T05:19:34.569Z,94.59
2019-02-17T05:21:08.477Z,94.70
2019-02-17T05:22:08.710Z,94.38
2019-02-17T05:23:42.548Z,93.85
2019-02-17T05:24:42.730Z,93.85
2019-02-17T05:26:16.624Z,95.65
2019-02-17T05:27:16.835Z,95.33
2019-02-17T05:28:50.122Z,94.81
2019-02-17T05:29:50.334Z,94.38
2019-02-17T05:31:24.139Z,95.71
2019-02-17T05:32:24.336Z,95.44
2019-02-17T05:33:58.664Z,95.01
2019-02-17T05:34:59.120Z,94.48
2019-02-17T05:36:32.654Z,94.06
2019-02-17T05:37:32.708Z,94.17
2019-02-17T05:39:06.144Z,92.79
2019-02-17T05:40:06.369Z,92.69
2019-02-17T05:41:39.765Z,91.94
2019-02-17T05:42:39.977Z,92.90
2019-02-17T05:44:13.864Z,93.26
2019-02-17T05:45:14.069Z,93.43
2019-02-17T05:46:47.419Z,93.74
2019-02-17T05:47:47.701Z,92.90
2019-02-17T05:49:21.379Z,91.99
2019-02-17T05:50:21.583Z,91.46
2019-02-17T05:51:56.475Z,91.03
2019-02-17T05:52:56.704Z,90.82
2019-02-17T05:54:30.519Z,90.93
2019-02-17T05:55:30.713Z,91.67
2019-02-17T05:57:04.064Z,92.77
2019-02-17T05:58:04.292Z,94.21
2019-02-17T05:59:38.110Z,96.33
2019-02-17T06:00:38.333Z,97.13
2019-02-17T06:02:12.201Z,97.41
2019-02-17T06:03:12.396Z,98.04
2019-02-17T06:04:45.697Z,98.25
2019-02-17T06:05:45.963Z,98.21
2019-02-17T06:07:19.133Z,98.74
2019-02-17T06:08:19.332Z,98.31
2019-02-17T06:09:52.605Z,98.31
2019-02-17T06:10:52.834Z,97.67
2019-02-17T06:12:27.135Z,97.57
2019-02-17T06:13:27.382Z,96.62
2019-02-17T06:15:00.532Z,97.05
2019-02-17T06:16:00.736Z,96.83
2019-02-17T06:17:34.030Z,95.78
2019-02-17T06:18:34.224Z,95.50
2019-02-17T06:20:07.490Z,94.97
2019-02-17T06:21:07.727Z,95.07
2019-02-17T06:22:40.998Z,94.23
2019-02-17T06:23:41.216Z,93.91
2019-02-17T06:25:15.504Z,93.98
2019-02-17T06:26:15.708Z,94.23
2019-02-17T06:27:48.999Z,93.81
2019-02-17T06:28:49.351Z,94.45
2019-02-17T06:30:23.167Z,94.13
2019-02-17T06:31:24.501Z,94.55
2019-02-17T06:32:57.204Z,95.14
2019-02-17T06:33:57.349Z,95.14
2019-02-17T06:35:31.207Z,95.14
2019-02-17T06:36:31.329Z,96.09
2019-02-17T06:38:05.126Z,95.98
2019-02-17T06:39:05.317Z,95.14
2019-02-17T06:40:39.099Z,94.61
2019-02-17T06:41:39.302Z,94.09
2019-02-17T06:43:13.077Z,94.09
2019-02-17T06:44:13.304Z,94.72
2019-02-17T06:45:47.056Z,94.04
2019-02-17T06:46:47.278Z,93.45
2019-02-17T06:48:20.556Z,93.34
2019-02-17T06:49:20.778Z,93.55
2019-02-17T06:50:55.186Z,92.39
2019-02-17T06:51:55.266Z,92.07
2019-02-17T06:53:28.588Z,91.82
2019-02-17T06:54:28.778Z,91.55
2019-02-17T06:56:02.054Z,90.98
2019-02-17T06:57:02.131Z,90.23
2019-02-17T06:58:41.944Z,92.14
2019-02-17T06:59:39.668Z,93.19
2019-02-17T07:01:13.003Z,93.37
2019-02-17T07:02:13.074Z,94.42
2019-02-17T07:03:48.211Z,94.21
2019-02-17T07:04:48.176Z,93.96
2019-02-17T07:06:21.416Z,93.11
2019-02-17T07:07:22.189Z,92.79
2019-02-17T07:08:55.703Z,91.95
2019-02-17T07:09:55.800Z,90.69
2019-02-17T07:11:29.564Z,89.52
2019-02-17T07:12:30.227Z,89.10
2019-02-17T07:14:04.863Z,88.89
2019-02-17T07:15:04.967Z,89.00
2019-02-17T07:16:40.171Z,89.94
2019-02-17T07:17:40.497Z,91.00
2019-02-17T07:19:16.281Z,90.26
2019-02-17T07:20:16.539Z,89.73
2019-02-17T07:21:52.312Z,91.80
2019-02-17T07:22:52.639Z,91.70
2019-02-17T07:24:28.340Z,91.02
2019-02-17T07:25:30.421Z,91.80
2019-02-17T07:27:03.348Z,92.40
2019-02-17T07:28:03.553Z,91.76
2019-02-17T07:29:39.069Z,91.24
2019-02-17T07:30:38.431Z,91.44
2019-02-17T07:32:13.254Z,90.98
2019-02-17T07:33:13.631Z,90.41
2019-02-17T07:34:48.164Z,89.95
2019-02-17T07:35:48.275Z,89.11
2019-02-17T07:37:32.737Z,87.81
2019-02-17T07:38:24.284Z,87.76
2019-02-17T07:39:57.633Z,87.73
2019-02-17T07:40:57.823Z,87.41
2019-02-17T07:42:31.149Z,87.65
2019-02-17T07:43:31.313Z,88.02
2019-02-17T07:45:05.530Z,87.57
2019-02-17T07:46:05.745Z,87.52
2019-02-17T07:47:39.153Z,85.94
2019-02-17T07:48:39.265Z,84.29
2019-02-17T07:50:13.299Z,82.71
2019-02-17T07:51:13.323Z,82.53
2019-02-17T07:52:47.158Z,81.38
2019-02-17T07:53:48.339Z,79.88
2019-02-17T07:55:22.611Z,77.27
2019-02-17T07:56:22.750Z,75.88
2019-02-17T07:57:56.932Z,72.90
2019-02-17T07:58:59.441Z,71.62
2019-02-17T08:00:31.309Z,70.93
2019-02-17T08:01:44.462Z,69.10
2019-02-17T08:03:09.457Z,68.69
2019-02-17T08:04:10.369Z,68.55
2019-02-17T08:05:43.201Z,65.93
2019-02-17T08:06:43.953Z,65.97
2019-02-17T08:08:18.111Z,63.66
2019-02-17T08:09:18.329Z,62.49
2019-02-17T08:10:52.122Z,61.67
2019-02-17T08:11:52.229Z,61.10
2019-02-17T08:13:25.446Z,61.04
2019-02-17T08:14:25.525Z,61.04
2019-02-17T08:15:58.953Z,60.77
2019-02-17T08:16:59.132Z,59.74
2019-02-17T08:18:32.430Z,58.14
2019-02-17T08:19:32.680Z,58.86
2019-02-17T08:21:05.849Z,57.70
2019-02-17T08:22:07.105Z,57.18
2019-02-17T08:23:39.848Z,53.50
2019-02-17T08:24:39.959Z,54.28
2019-02-17T08:26:13.725Z,54.66
2019-02-17T08:27:13.827Z,53.00
2019-02-17T08:28:47.647Z,51.64
2019-02-17T08:29:47.383Z,53.36
2019-02-17T08:31:20.599Z,53.23
2019-02-17T08:32:20.780Z,50.95
2019-02-17T10:10:20.550Z,30.50
2019-02-17T10:11:20.231Z,30.87
2019-02-17T10:12:53.456Z,29.44
2019-02-17T10:13:53.741Z,26.72
2019-02-17T10:15:28.165Z,30.61
2019-02-17T10:16:28.614Z,29.69
2019-02-17T10:18:00.859Z,28.67
2019-02-17T10:19:01.072Z,29.52
2019-02-17T10:20:34.387Z,25.31
2019-02-17T10:21:35.396Z,26.76
2019-02-17T10:23:08.883Z,26.17
2019-02-17T10:24:09.050Z,26.79
2019-02-17T10:25:42.047Z,27.00
2019-02-17T10:26:42.200Z,27.41
2019-02-17T10:28:16.435Z,27.42
2019-02-17T10:29:16.661Z,28.99
2019-02-17T10:30:49.857Z,27.53
2019-02-17T10:31:49.971Z,27.32
2019-02-17T10:33:23.865Z,25.03
2019-02-17T10:34:23.972Z,27.00
2019-02-17T10:35:58.021Z,27.36
2019-02-17T10:36:57.544Z,25.92
2019-02-17T10:38:32.396Z,24.32
2019-02-17T10:39:32.377Z,26.25
2019-02-17T10:41:06.684Z,26.61
2019-02-17T10:42:06.789Z,24.51
2019-02-17T10:43:41.109Z,25.77
2019-02-17T10:44:41.244Z,25.15
2019-02-17T10:46:15.469Z,23.60
2019-02-17T10:47:15.587Z,26.61
2019-02-17T10:48:48.929Z,24.98
2019-02-17T10:49:49.146Z,25.98
2019-02-17T10:51:22.443Z,24.49
2019-02-17T10:52:22.931Z,23.92
2019-02-17T10:53:56.251Z,27.31
2019-02-17T10:54:56.387Z,26.79
2019-02-17T10:56:29.730Z,27.78
2019-02-17T10:57:29.614Z,27.35
2019-02-17T10:59:03.963Z,25.61
2019-02-17T11:30:31.384Z,20.67
2019-02-17T11:31:32.615Z,20.67
2019-02-17T11:33:05.023Z,19.45
2019-02-17T11:34:06.425Z,21.01
2019-02-17T11:35:39.982Z,18.73
2019-02-17T11:36:40.226Z,19.21
2019-02-17T11:38:16.929Z,19.20
2019-02-17T11:39:17.033Z,18.52
2019-02-17T11:40:53.781Z,19.82
2019-02-17T11:41:53.902Z,19.11
2019-02-17T11:43:27.668Z,19.89
2019-02-17T11:44:27.768Z,20.19
2019-02-17T11:46:02.538Z,20.89
2019-02-17T11:47:02.810Z,20.60
2019-02-17T11:48:37.694Z,20.30
2019-02-17T11:49:38.277Z,19.50
2019-02-17T11:51:12.882Z,20.30
2019-02-17T11:52:13.195Z,20.60
2019-02-17T13:06:18.517Z,21.59
2019-02-17T13:07:19.814Z,19.98
2019-02-17T13:08:52.045Z,18.65
2019-02-17T13:09:52.286Z,18.44
2019-02-17T13:11:25.581Z,16.82
2019-02-17T13:12:25.862Z,16.81
2019-02-17T13:14:00.725Z,17.95
2019-02-17T13:15:00.959Z,19.04
2019-02-17T13:16:34.269Z,19.17
2019-02-17T13:17:34.467Z,19.10
2019-02-17T13:19:09.747Z,21.80
2019-02-17T13:20:09.972Z,20.20
2019-02-17T13:21:47.325Z,18.82
2019-02-17T13:22:47.539Z,20.81
2019-02-17T13:24:20.891Z,20.79
2019-02-17T13:25:21.012Z,22.91
2019-02-17T13:26:54.785Z,20.21
2019-02-17T13:27:54.993Z,19.73
2019-02-17T13:29:28.987Z,19.63
2019-02-17T13:30:29.104Z,21.60
2019-02-17T13:32:03.744Z,19.29
2019-02-17T13:33:03.865Z,21.00
2019-02-17T13:34:38.676Z,21.08
2019-02-17T13:35:38.741Z,19.40
2019-02-17T13:37:12.540Z,19.80
2019-02-17T13:38:12.771Z,20.70
2019-02-17T13:39:48.535Z,19.01
2019-02-17T13:40:48.631Z,19.29
2019-02-17T13:42:22.433Z,18.71
2019-02-17T13:43:22.659Z,20.84
2019-02-17T13:44:57.477Z,20.89
2019-02-17T13:45:57.683Z,21.73
2019-02-17T13:47:31.979Z,22.54
2019-02-17T13:48:31.875Z,22.45
2019-02-17T13:50:06.375Z,23.05
2019-02-17T13:51:06.608Z,22.64
2019-02-17T13:52:39.842Z,22.61
2019-02-17T13:53:39.953Z,21.70
2019-02-17T13:55:13.736Z,20.07
2019-02-17T13:56:13.970Z,19.87
2019-02-17T13:57:47.222Z,21.41
2019-02-17T13:58:47.431Z,21.50
2019-02-17T14:00:21.707Z,22.93
2019-02-17T14:01:21.973Z,23.12
2019-02-17T14:02:55.844Z,21.44
2019-02-17T14:03:55.934Z,21.84
